sensor_id;sensor_type;location;lat;lon;timestamp;pressure;altitude;pressure_sealevel;temperature;humidity
47726;BME280;33483;48.294;16.388;2023-02-23T00:01:39;99390.81;;;3.66;100.00
47726;BME280;33483;48.294;16.388;2023-02-23T00:04:16;99387.88;;;3.69;100.00
47726;BME280;33483;48.294;16.388;2023-02-23T00:06:44;99386.63;;;3.70;100.00
47726;BME280;33483;48.294;16.388;2023-02-23T00:09:11;99382.66;;;3.71;100.00
47726;BME280;33483;48.294;16.388;2023-02-23T00:11:50;99382.38;;;3.69;100.00
47726;BME280;33483;48.294;16.388;2023-02-23T00:14:18;99388.56;;;3.64;100.00
47726;BME280;33483;48.294;16.388;2023-02-23T00:16:50;99383.31;;;3.61;100.00
47726;BME280;33483;48.294;16.388;2023-02-23T00:19:17;99381.78;;;3.60;100.00
47726;BME280;33483;48.294;16.388;2023-02-23T00:21:45;99380.34;;;3.64;100.00
47726;BME280;33483;48.294;16.388;2023-02-23T00:24:14;99381.06;;;3.59;100.00
47726;BME280;33483;48.294;16.388;2023-02-23T00:26:42;99377.06;;;3.60;100.00
47726;BME280;33483;48.294;16.388;2023-02-23T00:29:15;99373.28;;;3.58;100.00
47726;BME280;33483;48.294;16.388;2023-02-23T00:31:44;99377.78;;;3.55;100.00
47726;BME280;33483;48.294;16.388;2023-02-23T00:34:12;99370.53;;;3.52;100.00
47726;BME280;33483;48.294;16.388;2023-02-23T00:36:40;99374.97;;;3.50;100.00
47726;BME280;33483;48.294;16.388;2023-02-23T00:39:09;99377.94;;;3.46;100.00
47726;BME280;33483;48.294;16.388;2023-02-23T00:41:48;99376.16;;;3.43;100.00
47726;BME280;33483;48.294;16.388;2023-02-23T00:44:15;99373.69;;;3.45;100.00
47726;BME280;33483;48.294;16.388;2023-02-23T00:46:42;99376.44;;;3.45;100.00
47726;BME280;33483;48.294;16.388;2023-02-23T00:49:11;99376.88;;;3.43;100.00
47726;BME280;33483;48.294;16.388;2023-02-23T00:51:40;99374.63;;;3.42;100.00
47726;BME280;33483;48.294;16.388;2023-02-23T00:54:07;99379.63;;;3.43;100.00
47726;BME280;33483;48.294;16.388;2023-02-23T00:56:34;99380.13;;;3.42;100.00
47726;BME280;33483;48.294;16.388;2023-02-23T00:59:04;99379.63;;;3.43;100.00
47726;BME280;33483;48.294;16.388;2023-02-23T01:01:31;99373.34;;;3.37;100.00
47726;BME280;33483;48.294;16.388;2023-02-23T01:03:59;99375.34;;;3.37;100.00
47726;BME280;33483;48.294;16.388;2023-02-23T01:06:27;99372.53;;;3.31;100.00
47726;BME280;33483;48.294;16.388;2023-02-23T01:08:56;99368.50;;;3.27;100.00
47726;BME280;33483;48.294;16.388;2023-02-23T01:11:25;99368.50;;;3.27;100.00
47726;BME280;33483;48.294;16.388;2023-02-23T01:13:57;99371.47;;;3.23;100.00
47726;BME280;33483;48.294;16.388;2023-02-23T01:16:27;99371.19;;;3.21;100.00
47726;BME280;33483;48.294;16.388;2023-02-23T01:18:57;99367.69;;;3.21;100.00
47726;BME280;33483;48.294;16.388;2023-02-23T01:21:29;99371.81;;;3.31;100.00
47726;BME280;33483;48.294;16.388;2023-02-23T01:23:58;99367.75;;;3.26;100.00
47726;BME280;33483;48.294;16.388;2023-02-23T01:26:30;99359.75;;;3.23;100.00
47726;BME280;33483;48.294;16.388;2023-02-23T01:29:09;99358.75;;;3.20;100.00
47726;BME280;33483;48.294;16.388;2023-02-23T01:31:38;99359.69;;;3.17;100.00
47726;BME280;33483;48.294;16.388;2023-02-23T01:34:09;99363.66;;;3.16;100.00
47726;BME280;33483;48.294;16.388;2023-02-23T01:36:38;99350.75;;;3.17;100.00
47726;BME280;33483;48.294;16.388;2023-02-23T01:39:07;99351.97;;;3.16;100.00
47726;BME280;33483;48.294;16.388;2023-02-23T01:41:35;99354.69;;;3.16;100.00
47726;BME280;33483;48.294;16.388;2023-02-23T01:44:06;99354.16;;;3.12;100.00
47726;BME280;33483;48.294;16.388;2023-02-23T01:46:35;99353.63;;;3.08;100.00
47726;BME280;33483;48.294;16.388;2023-02-23T01:49:09;99348.56;;;3.01;100.00
47726;BME280;33483;48.294;16.388;2023-02-23T01:51:39;99343.50;;;2.94;100.00
47726;BME280;33483;48.294;16.388;2023-02-23T01:54:10;99348.91;;;2.88;100.00
47726;BME280;33483;48.294;16.388;2023-02-23T01:56:43;99344.13;;;2.83;100.00
47726;BME280;33483;48.294;16.388;2023-02-23T01:59:11;99334.16;;;2.80;100.00
47726;BME280;33483;48.294;16.388;2023-02-23T02:01:41;99338.09;;;2.79;100.00
47726;BME280;33483;48.294;16.388;2023-02-23T02:04:09;99339.81;;;2.77;100.00
47726;BME280;33483;48.294;16.388;2023-02-23T02:06:43;99348.31;;;2.79;100.00
47726;BME280;33483;48.294;16.388;2023-02-23T02:09:15;99343.84;;;2.81;100.00
47726;BME280;33483;48.294;16.388;2023-02-23T02:11:45;99333.94;;;2.84;100.00
47726;BME280;33483;48.294;16.388;2023-02-23T02:14:28;99343.09;;;2.81;100.00
47726;BME280;33483;48.294;16.388;2023-02-23T02:38:31;99336.19;;;2.65;100.00
47726;BME280;33483;48.294;16.388;2023-02-23T02:41:47;99330.47;;;2.63;100.00
47726;BME280;33483;48.294;16.388;2023-02-23T02:43:50;99326.69;;;2.61;100.00
47726;BME280;33483;48.294;16.388;2023-02-23T02:46:22;99326.41;;;2.59;100.00
47726;BME280;33483;48.294;16.388;2023-02-23T02:51:27;99330.19;;;2.61;100.00
47726;BME280;33483;48.294;16.388;2023-02-23T02:56:25;99333.84;;;2.58;100.00
47726;BME280;33483;48.294;16.388;2023-02-23T02:58:53;99337.06;;;2.57;100.00
47726;BME280;33483;48.294;16.388;2023-02-23T03:01:21;99334.59;;;2.59;100.00
47726;BME280;33483;48.294;16.388;2023-02-23T03:04:21;99337.34;;;2.59;100.00
47726;BME280;33483;48.294;16.388;2023-02-23T03:07:09;99340.44;;;2.66;100.00
47726;BME280;33483;48.294;16.388;2023-02-23T03:16:14;99344.25;;;2.54;100.00
47726;BME280;33483;48.294;16.388;2023-02-23T03:30:24;99347.59;;;2.44;100.00
47726;BME280;33483;48.294;16.388;2023-02-23T03:33:16;99341.09;;;2.41;100.00
47726;BME280;33483;48.294;16.388;2023-02-23T03:36:05;99349.97;;;2.36;100.00
47726;BME280;33483;48.294;16.388;2023-02-23T03:39:01;99340.00;;;2.33;100.00
47726;BME280;33483;48.294;16.388;2023-02-23T03:41:50;99346.69;;;2.32;100.00
47726;BME280;33483;48.294;16.388;2023-02-23T03:44:39;99348.41;;;2.29;100.00
47726;BME280;33483;48.294;16.388;2023-02-23T03:47:26;99350.38;;;2.29;100.00
47726;BME280;33483;48.294;16.388;2023-02-23T03:50:20;99354.34;;;2.28;100.00
47726;BME280;33483;48.294;16.388;2023-02-23T03:53:08;99350.56;;;2.25;100.00
47726;BME280;33483;48.294;16.388;2023-02-23T03:55:57;99352.28;;;2.23;100.00
47726;BME280;33483;48.294;16.388;2023-02-23T03:58:47;99353.22;;;2.20;100.00
47726;BME280;33483;48.294;16.388;2023-02-23T04:01:35;99362.19;;;2.20;100.00
47726;BME280;33483;48.294;16.388;2023-02-23T04:04:21;99355.94;;;2.20;100.00
47726;BME280;33483;48.294;16.388;2023-02-23T04:07:08;99351.53;;;2.22;100.00
47726;BME280;33483;48.294;16.388;2023-02-23T04:09:55;99354.53;;;2.24;100.00
47726;BME280;33483;48.294;16.388;2023-02-23T04:15:33;99357.56;;;2.26;100.00
47726;BME280;33483;48.294;16.388;2023-02-23T04:18:03;99361.03;;;2.27;100.00
47726;BME280;33483;48.294;16.388;2023-02-23T04:20:30;99365.00;;;2.26;100.00
47726;BME280;33483;48.294;16.388;2023-02-23T04:22:58;99371.47;;;2.28;100.00
47726;BME280;33483;48.294;16.388;2023-02-23T04:25:25;99361.31;;;2.29;100.00
47726;BME280;33483;48.294;16.388;2023-02-23T04:27:52;99348.41;;;2.29;100.00
47726;BME280;33483;48.294;16.388;2023-02-23T04:30:19;99365.38;;;2.34;100.00
47726;BME280;33483;48.294;16.388;2023-02-23T04:32:49;99361.66;;;2.37;100.00
47726;BME280;33483;48.294;16.388;2023-02-23T04:35:17;99356.28;;;2.42;100.00
47726;BME280;33483;48.294;16.388;2023-02-23T04:37:44;99360.03;;;2.45;100.00
47726;BME280;33483;48.294;16.388;2023-02-23T04:40:11;99362.00;;;2.44;100.00
47726;BME280;33483;48.294;16.388;2023-02-23T04:42:38;99358.63;;;2.49;100.00
47726;BME280;33483;48.294;16.388;2023-02-23T04:45:08;99363.88;;;2.53;100.00
47726;BME280;33483;48.294;16.388;2023-02-23T04:47:36;99363.41;;;2.54;100.00
47726;BME280;33483;48.294;16.388;2023-02-23T04:50:03;99360.81;;;2.65;100.00
47726;BME280;33483;48.294;16.388;2023-02-23T04:52:33;99365.66;;;2.76;100.00
47726;BME280;33483;48.294;16.388;2023-02-23T04:55:00;99358.41;;;2.73;100.00
47726;BME280;33483;48.294;16.388;2023-02-23T04:57:30;99366.22;;;2.80;100.00
47726;BME280;33483;48.294;16.388;2023-02-23T04:59:57;99367.59;;;2.90;100.00
47726;BME280;33483;48.294;16.388;2023-02-23T05:02:24;99364.72;;;2.99;100.00
47726;BME280;33483;48.294;16.388;2023-02-23T05:04:51;99360.75;;;3.00;100.00
47726;BME280;33483;48.294;16.388;2023-02-23T05:07:19;99363.69;;;2.96;100.00
47726;BME280;33483;48.294;16.388;2023-02-23T05:09:45;99364.72;;;2.99;100.00
47726;BME280;33483;48.294;16.388;2023-02-23T05:12:13;99362.94;;;2.96;100.00
47726;BME280;33483;48.294;16.388;2023-02-23T05:14:40;99356.44;;;2.93;100.00
47726;BME280;33483;48.294;16.388;2023-02-23T05:17:07;99364.16;;;2.95;100.00
47726;BME280;33483;48.294;16.388;2023-02-23T05:19:34;99358.44;;;2.93;100.00
47726;BME280;33483;48.294;16.388;2023-02-23T05:22:04;99359.94;;;2.94;100.00
47726;BME280;33483;48.294;16.388;2023-02-23T05:24:32;99365.41;;;2.94;100.00
47726;BME280;33483;48.294;16.388;2023-02-23T05:26:59;99364.44;;;2.97;100.00
47726;BME280;33483;48.294;16.388;2023-02-23T05:29:26;99363.22;;;2.98;100.00
47726;BME280;33483;48.294;16.388;2023-02-23T05:31:53;99366.44;;;2.96;100.00
47726;BME280;33483;48.294;16.388;2023-02-23T05:34:20;99368.22;;;2.99;100.00
47726;BME280;33483;48.294;16.388;2023-02-23T05:36:48;99369.78;;;3.06;100.00
47726;BME280;33483;48.294;16.388;2023-02-23T05:39:15;99365.53;;;3.05;100.00
47726;BME280;33483;48.294;16.388;2023-02-23T05:41:42;99372.50;;;3.06;100.00
47726;BME280;33483;48.294;16.388;2023-02-23T05:44:09;99379.06;;;3.14;100.00
47726;BME280;33483;48.294;16.388;2023-02-23T05:46:36;99372.31;;;3.09;100.00
47726;BME280;33483;48.294;16.388;2023-02-23T05:49:04;99382.50;;;3.09;100.00
47726;BME280;33483;48.294;16.388;2023-02-23T05:51:32;99384.22;;;3.06;100.00
47726;BME280;33483;48.294;16.388;2023-02-23T05:54:00;99384.94;;;3.07;100.00
47726;BME280;33483;48.294;16.388;2023-02-23T05:56:27;99381.19;;;3.04;100.00
47726;BME280;33483;48.294;16.388;2023-02-23T05:58:55;99386.47;;;3.08;100.00
47726;BME280;33483;48.294;16.388;2023-02-23T06:01:26;99385.72;;;3.07;100.00
47726;BME280;33483;48.294;16.388;2023-02-23T06:03:53;99392.50;;;3.12;100.00
47726;BME280;33483;48.294;16.388;2023-02-23T06:06:22;99392.34;;;3.21;100.00
47726;BME280;33483;48.294;16.388;2023-02-23T06:08:50;99405.19;;;3.35;100.00
47726;BME280;33483;48.294;16.388;2023-02-23T06:11:18;99404.78;;;3.42;100.00
47726;BME280;33483;48.294;16.388;2023-02-23T06:13:45;99398.38;;;3.51;100.00
47726;BME280;33483;48.294;16.388;2023-02-23T06:16:13;99408.00;;;3.66;100.00
47726;BME280;33483;48.294;16.388;2023-02-23T06:18:40;99412.03;;;3.71;100.00
47726;BME280;33483;48.294;16.388;2023-02-23T06:21:08;99411.47;;;3.87;100.00
47726;BME280;33483;48.294;16.388;2023-02-23T06:23:37;99416.50;;;3.94;100.00
47726;BME280;33483;48.294;16.388;2023-02-23T06:26:04;99418.31;;;4.02;100.00
47726;BME280;33483;48.294;16.388;2023-02-23T06:28:31;99423.38;;;4.09;100.00
47726;BME280;33483;48.294;16.388;2023-02-23T06:30:59;99420.47;;;4.18;100.00
47726;BME280;33483;48.294;16.388;2023-02-23T06:33:26;99423.97;;;4.24;100.00
47726;BME280;33483;48.294;16.388;2023-02-23T06:35:54;99425.56;;;4.36;100.00
47726;BME280;33483;48.294;16.388;2023-02-23T06:38:21;99432.13;;;4.44;100.00
47726;BME280;33483;48.294;16.388;2023-02-23T06:40:49;99427.69;;;4.52;100.00
47726;BME280;33483;48.294;16.388;2023-02-23T06:43:16;99428.75;;;4.66;100.00
47726;BME280;33483;48.294;16.388;2023-02-23T06:45:45;99448.50;;;4.70;100.00
47726;BME280;33483;48.294;16.388;2023-02-23T06:48:12;99441.03;;;4.76;100.00
47726;BME280;33483;48.294;16.388;2023-02-23T06:50:39;99435.84;;;4.84;100.00
47726;BME280;33483;48.294;16.388;2023-02-23T06:53:06;99441.91;;;4.93;100.00
47726;BME280;33483;48.294;16.388;2023-02-23T06:55:34;99440.69;;;5.00;100.00
47726;BME280;33483;48.294;16.388;2023-02-23T06:58:04;99445.50;;;5.10;100.00
47726;BME280;33483;48.294;16.388;2023-02-23T07:00:34;99448.25;;;5.21;100.00
47726;BME280;33483;48.294;16.388;2023-02-23T07:03:01;99450.56;;;5.34;100.00
47726;BME280;33483;48.294;16.388;2023-02-23T07:05:28;99447.34;;;5.41;100.00
47726;BME280;33483;48.294;16.388;2023-02-23T07:07:56;99455.88;;;5.48;100.00
47726;BME280;33483;48.294;16.388;2023-02-23T07:10:23;99455.63;;;5.52;100.00
47726;BME280;33483;48.294;16.388;2023-02-23T07:12:51;99456.41;;;5.63;100.00
47726;BME280;33483;48.294;16.388;2023-02-23T07:15:19;99459.69;;;5.73;100.00
47726;BME280;33483;48.294;16.388;2023-02-23T07:17:46;99444.22;;;5.81;100.00
47726;BME280;33483;48.294;16.388;2023-02-23T07:20:14;99458.75;;;5.87;100.00
47726;BME280;33483;48.294;16.388;2023-02-23T07:22:42;99453.50;;;5.95;100.00
47726;BME280;33483;48.294;16.388;2023-02-23T07:25:09;99460.78;;;6.09;100.00
47726;BME280;33483;48.294;16.388;2023-02-23T07:27:37;99462.31;;;6.15;100.00
47726;BME280;33483;48.294;16.388;2023-02-23T07:30:04;99454.28;;;6.23;100.00
47726;BME280;33483;48.294;16.388;2023-02-23T07:32:31;99456.56;;;6.35;100.00
47726;BME280;33483;48.294;16.388;2023-02-23T07:34:59;99459.56;;;6.48;100.00
47726;BME280;33483;48.294;16.388;2023-02-23T07:37:26;99451.28;;;6.65;100.00
47726;BME280;33483;48.294;16.388;2023-02-23T07:39:53;99458.78;;;6.75;100.00
47726;BME280;33483;48.294;16.388;2023-02-23T07:42:20;99453.25;;;6.87;100.00
47726;BME280;33483;48.294;16.388;2023-02-23T07:44:47;99464.22;;;6.98;100.00
47726;BME280;33483;48.294;16.388;2023-02-23T07:47:14;99462.75;;;6.97;100.00
47726;BME280;33483;48.294;16.388;2023-02-23T07:49:46;99466.47;;;7.05;100.00
47726;BME280;33483;48.294;16.388;2023-02-23T07:52:16;99474.72;;;7.10;100.00
47726;BME280;33483;48.294;16.388;2023-02-23T07:54:43;99464.69;;;7.13;100.00
47726;BME280;33483;48.294;16.388;2023-02-23T07:57:10;99464.69;;;7.18;100.00
47726;BME280;33483;48.294;16.388;2023-02-23T07:59:37;99480.72;;;7.20;100.00
47726;BME280;33483;48.294;16.388;2023-02-23T08:02:04;99472.91;;;7.24;100.00
47726;BME280;33483;48.294;16.388;2023-02-23T08:04:32;99487.69;;;7.32;100.00
47726;BME280;33483;48.294;16.388;2023-02-23T08:06:59;99482.13;;;7.43;100.00
47726;BME280;33483;48.294;16.388;2023-02-23T08:09:29;99475.63;;;7.40;100.00
47726;BME280;33483;48.294;16.388;2023-02-23T08:11:58;99473.81;;;7.54;100.00
47726;BME280;33483;48.294;16.388;2023-02-23T08:14:25;99486.28;;;7.66;100.00
47726;BME280;33483;48.294;16.388;2023-02-23T08:16:52;99493.28;;;7.72;100.00
47726;BME280;33483;48.294;16.388;2023-02-23T08:19:20;99491.50;;;7.75;100.00
47726;BME280;33483;48.294;16.388;2023-02-23T08:21:49;99493.75;;;7.76;100.00
47726;BME280;33483;48.294;16.388;2023-02-23T08:24:17;99477.88;;;7.88;100.00
47726;BME280;33483;48.294;16.388;2023-02-23T08:26:44;99489.84;;;8.07;100.00
47726;BME280;33483;48.294;16.388;2023-02-23T08:29:11;99490.53;;;8.13;100.00
47726;BME280;33483;48.294;16.388;2023-02-23T08:31:38;99493.16;;;8.35;100.00
47726;BME280;33483;48.294;16.388;2023-02-23T08:34:05;99494.22;;;8.62;100.00
47726;BME280;33483;48.294;16.388;2023-02-23T08:36:32;99488.03;;;9.28;100.00
47726;BME280;33483;48.294;16.388;2023-02-23T08:39:00;99499.09;;;9.89;100.00
47726;BME280;33483;48.294;16.388;2023-02-23T08:41:28;99500.50;;;9.96;100.00
47726;BME280;33483;48.294;16.388;2023-02-23T08:43:56;99505.22;;;10.01;100.00
47726;BME280;33483;48.294;16.388;2023-02-23T08:46:26;99493.00;;;9.54;100.00
47726;BME280;33483;48.294;16.388;2023-02-23T08:48:54;99494.34;;;9.47;100.00
47726;BME280;33483;48.294;16.388;2023-02-23T08:51:21;99494.63;;;9.44;100.00
47726;BME280;33483;48.294;16.388;2023-02-23T08:53:50;99502.59;;;9.53;100.00
47726;BME280;33483;48.294;16.388;2023-02-23T08:56:17;99503.41;;;9.66;100.00
47726;BME280;33483;48.294;16.388;2023-02-23T08:58:47;99507.25;;;9.82;100.00
47726;BME280;33483;48.294;16.388;2023-02-23T09:01:15;99507.78;;;9.80;100.00
47726;BME280;33483;48.294;16.388;2023-02-23T09:03:44;99501.84;;;10.08;100.00
47726;BME280;33483;48.294;16.388;2023-02-23T09:06:13;99513.94;;;10.10;100.00
47726;BME280;33483;48.294;16.388;2023-02-23T09:08:41;99508.28;;;9.97;100.00
47726;BME280;33483;48.294;16.388;2023-02-23T09:11:10;99505.97;;;10.20;100.00
47726;BME280;33483;48.294;16.388;2023-02-23T09:13:37;99510.78;;;10.19;100.00
47726;BME280;33483;48.294;16.388;2023-02-23T09:16:04;99522.00;;;10.46;100.00
47726;BME280;33483;48.294;16.388;2023-02-23T09:18:33;99509.63;;;10.47;100.00
47726;BME280;33483;48.294;16.388;2023-02-23T09:21:04;99517.59;;;10.37;100.00
47726;BME280;33483;48.294;16.388;2023-02-23T09:23:35;99515.97;;;10.29;100.00
47726;BME280;33483;48.294;16.388;2023-02-23T09:26:07;99513.97;;;10.42;100.00
47726;BME280;33483;48.294;16.388;2023-02-23T09:28:37;99518.84;;;10.36;100.00
47726;BME280;33483;48.294;16.388;2023-02-23T09:33:33;99516.78;;;10.55;100.00
47726;BME280;33483;48.294;16.388;2023-02-23T09:36:03;99511.25;;;10.55;100.00
47726;BME280;33483;48.294;16.388;2023-02-23T09:38:31;99510.00;;;10.38;100.00
47726;BME280;33483;48.294;16.388;2023-02-23T09:40:58;99504.31;;;10.62;100.00
47726;BME280;33483;48.294;16.388;2023-02-23T09:43:34;99511.75;;;10.85;100.00
47726;BME280;33483;48.294;16.388;2023-02-23T09:46:10;99517.53;;;10.87;100.00
47726;BME280;33483;48.294;16.388;2023-02-23T09:48:40;99508.13;;;10.90;100.00
47726;BME280;33483;48.294;16.388;2023-02-23T09:51:09;99522.06;;;11.29;100.00
47726;BME280;33483;48.294;16.388;2023-02-23T09:53:41;99517.56;;;11.26;100.00
47726;BME280;33483;48.294;16.388;2023-02-23T09:56:12;99510.53;;;11.38;100.00
47726;BME280;33483;48.294;16.388;2023-02-23T09:58:42;99519.69;;;11.60;100.00
47726;BME280;33483;48.294;16.388;2023-02-23T10:03:50;99511.03;;;11.89;100.00
47726;BME280;33483;48.294;16.388;2023-02-23T10:06:18;99511.81;;;11.38;100.00
47726;BME280;33483;48.294;16.388;2023-02-23T10:08:54;99515.88;;;11.50;100.00
47726;BME280;33483;48.294;16.388;2023-02-23T10:21:58;99510.63;;;11.46;100.00
47726;BME280;33483;48.294;16.388;2023-02-23T10:24:35;99507.00;;;11.77;100.00
47726;BME280;33483;48.294;16.388;2023-02-23T10:27:14;99513.03;;;12.02;100.00
47726;BME280;33483;48.294;16.388;2023-02-23T10:34:58;99504.53;;;11.74;100.00
47726;BME280;33483;48.294;16.388;2023-02-23T10:37:25;99504.25;;;12.11;100.00
47726;BME280;33483;48.294;16.388;2023-02-23T10:39:56;99495.75;;;12.29;100.00
47726;BME280;33483;48.294;16.388;2023-02-23T10:42:23;99501.72;;;12.54;100.00
47726;BME280;33483;48.294;16.388;2023-02-23T10:44:55;99494.41;;;12.43;100.00
47726;BME280;33483;48.294;16.388;2023-02-23T10:47:26;99489.47;;;12.29;100.00
47726;BME280;33483;48.294;16.388;2023-02-23T10:49:54;99489.47;;;12.50;100.00
47726;BME280;33483;48.294;16.388;2023-02-23T10:52:30;99488.47;;;12.06;100.00
47726;BME280;33483;48.294;16.388;2023-02-23T10:55:02;99483.06;;;12.41;100.00
47726;BME280;33483;48.294;16.388;2023-02-23T10:57:30;99485.88;;;12.62;100.00
47726;BME280;33483;48.294;16.388;2023-02-23T11:00:06;99487.63;;;12.73;100.00
47726;BME280;33483;48.294;16.388;2023-02-23T11:02:34;99480.06;;;13.01;100.00
47726;BME280;33483;48.294;16.388;2023-02-23T11:05:03;99476.59;;;13.08;100.00
47726;BME280;33483;48.294;16.388;2023-02-23T11:07:31;99480.16;;;12.88;100.00
47726;BME280;33483;48.294;16.388;2023-02-23T11:10:11;99479.06;;;12.91;100.00
47726;BME280;33483;48.294;16.388;2023-02-23T11:12:44;99469.59;;;13.15;100.00
47726;BME280;33483;48.294;16.388;2023-02-23T11:18:05;99464.69;;;13.28;100.00
47726;BME280;33483;48.294;16.388;2023-02-23T11:20:39;99462.63;;;13.29;100.00
47726;BME280;33483;48.294;16.388;2023-02-23T11:23:28;99460.25;;;13.33;100.00
47726;BME280;33483;48.294;16.388;2023-02-23T11:25:58;99459.72;;;13.06;100.00
47726;BME280;33483;48.294;16.388;2023-02-23T11:28:36;99452.81;;;13.35;100.00
47726;BME280;33483;48.294;16.388;2023-02-23T11:31:14;99454.72;;;13.40;100.00
47726;BME280;33483;48.294;16.388;2023-02-23T11:33:44;99449.75;;;13.11;100.00
47726;BME280;33483;48.294;16.388;2023-02-23T11:38:40;99443.81;;;12.94;100.00
47726;BME280;33483;48.294;16.388;2023-02-23T11:41:17;99442.78;;;12.76;100.00
47726;BME280;33483;48.294;16.388;2023-02-23T11:43:49;99435.53;;;12.73;100.00
47726;BME280;33483;48.294;16.388;2023-02-23T11:46:17;99439.84;;;12.82;100.00
47726;BME280;33483;48.294;16.388;2023-02-23T11:49:08;99439.22;;;12.96;100.00
47726;BME280;33483;48.294;16.388;2023-02-23T11:51:35;99431.44;;;12.95;100.00
47726;BME280;33483;48.294;16.388;2023-02-23T11:54:06;99433.47;;;13.22;100.00
47726;BME280;33483;48.294;16.388;2023-02-23T11:56:38;99431.56;;;13.45;100.00
47726;BME280;33483;48.294;16.388;2023-02-23T11:59:06;99437.75;;;13.23;100.00
47726;BME280;33483;48.294;16.388;2023-02-23T12:01:38;99429.28;;;13.36;100.00
47726;BME280;33483;48.294;16.388;2023-02-23T12:07:16;99424.72;;;13.18;100.00
47726;BME280;33483;48.294;16.388;2023-02-23T12:09:45;99421.91;;;12.83;100.00
47726;BME280;33483;48.294;16.388;2023-02-23T12:12:15;99419.50;;;13.15;100.00
47726;BME280;33483;48.294;16.388;2023-02-23T12:17:21;99411.78;;;13.72;100.00
47726;BME280;33483;48.294;16.388;2023-02-23T12:22:31;99413.84;;;13.79;99.02
47726;BME280;33483;48.294;16.388;2023-02-23T12:25:03;99411.50;;;13.98;98.93
47726;BME280;33483;48.294;16.388;2023-02-23T12:27:36;99421.38;;;14.21;92.25
47726;BME280;33483;48.294;16.388;2023-02-23T12:40:58;99398.44;;;13.78;97.72
47726;BME280;33483;48.294;16.388;2023-02-23T12:43:29;99387.41;;;13.57;97.94
47726;BME280;33483;48.294;16.388;2023-02-23T12:53:56;99380.72;;;13.52;99.25
47726;BME280;33483;48.294;16.388;2023-02-23T13:01:56;99362.53;;;13.51;100.00
47726;BME280;33483;48.294;16.388;2023-02-23T13:07:13;99362.13;;;13.40;99.74
47726;BME280;33483;48.294;16.388;2023-02-23T13:19:49;99368.75;;;13.29;98.90
47726;BME280;33483;48.294;16.388;2023-02-23T13:22:27;99364.34;;;13.41;98.98
47726;BME280;33483;48.294;16.388;2023-02-23T13:25:02;99358.41;;;13.45;98.09
47726;BME280;33483;48.294;16.388;2023-02-23T13:27:35;99361.00;;;13.43;96.18
47726;BME280;33483;48.294;16.388;2023-02-23T13:30:07;99369.59;;;13.60;96.93
47726;BME280;33483;48.294;16.388;2023-02-23T13:32:35;99373.16;;;13.76;96.76
47726;BME280;33483;48.294;16.388;2023-02-23T13:35:06;99368.94;;;13.82;93.79
47726;BME280;33483;48.294;16.388;2023-02-23T13:37:38;99371.09;;;13.61;93.86
47726;BME280;33483;48.294;16.388;2023-02-23T13:53:59;99357.44;;;13.27;96.68
47726;BME280;33483;48.294;16.388;2023-02-23T13:56:28;99359.34;;;13.04;99.07
47726;BME280;33483;48.294;16.388;2023-02-23T13:59:01;99358.94;;;13.00;100.00
47726;BME280;33483;48.294;16.388;2023-02-23T14:01:35;99356.47;;;12.89;100.00
47726;BME280;33483;48.294;16.388;2023-02-23T14:04:04;99349.47;;;12.68;100.00
47726;BME280;33483;48.294;16.388;2023-02-23T14:06:33;99348.75;;;12.67;100.00
47726;BME280;33483;48.294;16.388;2023-02-23T14:09:10;99345.00;;;12.65;100.00
47726;BME280;33483;48.294;16.388;2023-02-23T14:11:41;99348.19;;;12.69;100.00
47726;BME280;33483;48.294;16.388;2023-02-23T14:14:58;99354.50;;;12.69;100.00
47726;BME280;33483;48.294;16.388;2023-02-23T14:22:25;99347.53;;;12.83;100.00
47726;BME280;33483;48.294;16.388;2023-02-23T14:27:43;99338.69;;;12.92;100.00
47726;BME280;33483;48.294;16.388;2023-02-23T14:32:38;99338.19;;;13.01;100.00
47726;BME280;33483;48.294;16.388;2023-02-23T14:35:07;99338.97;;;13.02;100.00
47726;BME280;33483;48.294;16.388;2023-02-23T14:37:58;99339.84;;;12.97;100.00
47726;BME280;33483;48.294;16.388;2023-02-23T14:40:33;99329.44;;;12.97;100.00
47726;BME280;33483;48.294;16.388;2023-02-23T14:43:01;99326.28;;;12.93;100.00
47726;BME280;33483;48.294;16.388;2023-02-23T14:45:30;99324.94;;;12.87;100.00
47726;BME280;33483;48.294;16.388;2023-02-23T14:48:00;99327.88;;;12.81;100.00
47726;BME280;33483;48.294;16.388;2023-02-23T14:50:32;99331.59;;;12.84;100.00
47726;BME280;33483;48.294;16.388;2023-02-23T14:53:00;99324.94;;;12.87;100.00
47726;BME280;33483;48.294;16.388;2023-02-23T14:55:32;99322.34;;;12.89;100.00
47726;BME280;33483;48.294;16.388;2023-02-23T14:58:17;99327.69;;;12.87;100.00
47726;BME280;33483;48.294;16.388;2023-02-23T15:00:46;99320.31;;;12.89;100.00
47726;BME280;33483;48.294;16.388;2023-02-23T15:03:15;99314.34;;;12.85;100.00
47726;BME280;33483;48.294;16.388;2023-02-23T15:05:43;99326.59;;;12.82;100.00
47726;BME280;33483;48.294;16.388;2023-02-23T15:08:15;99317.47;;;12.82;100.00
47726;BME280;33483;48.294;16.388;2023-02-23T15:10:43;99312.47;;;12.80;100.00
47726;BME280;33483;48.294;16.388;2023-02-23T15:13:29;99323.03;;;12.74;100.00
47726;BME280;33483;48.294;16.388;2023-02-23T15:16:30;99318.72;;;12.66;100.00
47726;BME280;33483;48.294;16.388;2023-02-23T15:21:56;99309.03;;;12.59;100.00
47726;BME280;33483;48.294;16.388;2023-02-23T15:24:25;99313.03;;;12.51;100.00
47726;BME280;33483;48.294;16.388;2023-02-23T15:26:54;99304.69;;;12.51;100.00
47726;BME280;33483;48.294;16.388;2023-02-23T15:29:32;99304.13;;;12.44;100.00
47726;BME280;33483;48.294;16.388;2023-02-23T15:32:12;99308.16;;;12.36;100.00
47726;BME280;33483;48.294;16.388;2023-02-23T15:34:51;99307.69;;;12.24;100.00